N218PK KSTE-KOSH
Flight info
| Callsign | N218PK |
|---|---|
| Flight time | 0h 23m |
| Altitude | 5500 |
| Route | VFR |
| Aircraft | BE58/L-VGD/C |
Departure
| Time | 2026-05-05 03:00 |
|---|---|
| Airport | Stevens Point Municipal Airport (KSTE) |
Arrival
| Time | 2026-05-05 03:24 |
|---|---|
| Airport | Wittman Regional Airport (KOSH) |
| Time | Latitude | Longitude | Altitude | Speed | Heading |
|---|---|---|---|---|---|
| 2026-05-05 02:52 | 44.54420 | -89.53591 | 1103 ft | 0 kts | 300° |
| 2026-05-05 02:55 | 44.54422 | -89.53594 | 1103 ft | 1 kts | 316° |
| 2026-05-05 02:56 | 44.54449 | -89.53583 | 1103 ft | 6 kts | 34° |
| 2026-05-05 02:56 | 44.54464 | -89.53538 | 1103 ft | 8 kts | 86° |
| 2026-05-05 02:56 | 44.54487 | -89.53479 | 1103 ft | 9 kts | 44° |
| 2026-05-05 02:56 | 44.54532 | -89.53435 | 1105 ft | 1 kts | 27° |
| 2026-05-05 02:57 | 44.54552 | -89.53419 | 1105 ft | 5 kts | 30° |
| 2026-05-05 02:57 | 44.54586 | -89.53394 | 1105 ft | 0 kts | 12° |
| 2026-05-05 02:57 | 44.54606 | -89.53374 | 1106 ft | 7 kts | 66° |
| 2026-05-05 02:57 | 44.54574 | -89.53281 | 1106 ft | 16 kts | 118° |
| 2026-05-05 02:58 | 44.54509 | -89.53123 | 1106 ft | 20 kts | 120° |
| 2026-05-05 02:58 | 44.54435 | -89.52940 | 1106 ft | 23 kts | 118° |
| 2026-05-05 02:58 | 44.54357 | -89.52742 | 1106 ft | 13 kts | 116° |
| 2026-05-05 02:58 | 44.54298 | -89.52613 | 1105 ft | 18 kts | 123° |
| 2026-05-05 02:59 | 44.54236 | -89.52457 | 1102 ft | 17 kts | 123° |
| 2026-05-05 02:59 | 44.54195 | -89.52374 | 1101 ft | 12 kts | 120° |
| 2026-05-05 02:59 | 44.54196 | -89.52356 | 1101 ft | 1 kts | 323° |
| 2026-05-05 02:59 | 44.54197 | -89.52357 | 1101 ft | 0 kts | 299° |
| 2026-05-05 03:00 | 44.54200 | -89.52365 | 1101 ft | 10 kts | 296° |
| 2026-05-05 03:00 | 44.54368 | -89.52773 | 1118 ft | 80 kts | 300° |
| 2026-05-05 03:00 | 44.54665 | -89.53389 | 1545 ft | 79 kts | 319° |
| 2026-05-05 03:00 | 44.55225 | -89.53590 | 1967 ft | 90 kts | 357° |
| 2026-05-05 03:01 | 44.55786 | -89.53172 | 2412 ft | 104 kts | 30° |
| 2026-05-05 03:01 | 44.56205 | -89.52313 | 2888 ft | 115 kts | 59° |
| 2026-05-05 03:01 | 44.56257 | -89.51199 | 3353 ft | 126 kts | 93° |
| 2026-05-05 03:01 | 44.55808 | -89.49993 | 3617 ft | 148 kts | 120° |
| 2026-05-05 03:02 | 44.55246 | -89.48798 | 3985 ft | 154 kts | 127° |
| 2026-05-05 03:02 | 44.54455 | -89.47776 | 4329 ft | 153 kts | 144° |
| 2026-05-05 03:02 | 44.53640 | -89.46880 | 4694 ft | 150 kts | 146° |
| 2026-05-05 03:02 | 44.52787 | -89.45971 | 4970 ft | 156 kts | 145° |
| 2026-05-05 03:03 | 44.51930 | -89.45084 | 5301 ft | 155 kts | 146° |
| 2026-05-05 03:03 | 44.51040 | -89.44129 | 5383 ft | 162 kts | 147° |
| 2026-05-05 03:03 | 44.50185 | -89.43130 | 5468 ft | 162 kts | 144° |
| 2026-05-05 03:03 | 44.49299 | -89.42095 | 5480 ft | 164 kts | 139° |
| 2026-05-05 03:04 | 44.48369 | -89.41089 | 5460 ft | 168 kts | 157° |
| 2026-05-05 03:04 | 44.47314 | -89.40440 | 5483 ft | 168 kts | 169° |
| 2026-05-05 03:04 | 44.46273 | -89.39574 | 5489 ft | 180 kts | 139° |
| 2026-05-05 03:04 | 44.45381 | -89.38301 | 5494 ft | 183 kts | 135° |
| 2026-05-05 03:05 | 44.44508 | -89.37026 | 5521 ft | 184 kts | 135° |
| 2026-05-05 03:05 | 44.43610 | -89.35717 | 5526 ft | 186 kts | 136° |
| 2026-05-05 03:05 | 44.42715 | -89.34414 | 5525 ft | 188 kts | 136° |
| 2026-05-05 03:05 | 44.41799 | -89.33081 | 5522 ft | 189 kts | 136° |
| 2026-05-05 03:06 | 44.40895 | -89.31767 | 5516 ft | 189 kts | 136° |
| 2026-05-05 03:06 | 44.39999 | -89.30423 | 5521 ft | 189 kts | 134° |
| 2026-05-05 03:06 | 44.39133 | -89.29033 | 5520 ft | 189 kts | 130° |
| 2026-05-05 03:06 | 44.38302 | -89.27602 | 5519 ft | 190 kts | 129° |
| 2026-05-05 03:07 | 44.37473 | -89.26173 | 5516 ft | 190 kts | 130° |
| 2026-05-05 03:07 | 44.36645 | -89.24744 | 5509 ft | 189 kts | 130° |
| 2026-05-05 03:07 | 44.35862 | -89.23270 | 5513 ft | 188 kts | 120° |
| 2026-05-05 03:07 | 44.35208 | -89.21678 | 5511 ft | 188 kts | 118° |
| 2026-05-05 03:08 | 44.34584 | -89.20098 | 5512 ft | 188 kts | 116° |
| 2026-05-05 03:08 | 44.33987 | -89.18480 | 5513 ft | 187 kts | 115° |
| 2026-05-05 03:08 | 44.33398 | -89.16878 | 5525 ft | 186 kts | 115° |
| 2026-05-05 03:08 | 44.32799 | -89.15248 | 5519 ft | 187 kts | 114° |
| 2026-05-05 03:09 | 44.32202 | -89.13635 | 5523 ft | 187 kts | 115° |
| 2026-05-05 03:09 | 44.31608 | -89.12024 | 5526 ft | 187 kts | 115° |
| 2026-05-05 03:09 | 44.31020 | -89.10409 | 5517 ft | 187 kts | 115° |
| 2026-05-05 03:09 | 44.30440 | -89.08798 | 5527 ft | 187 kts | 115° |
| 2026-05-05 03:10 | 44.29847 | -89.07149 | 5529 ft | 188 kts | 114° |
| 2026-05-05 03:10 | 44.29264 | -89.05526 | 5529 ft | 188 kts | 115° |
| 2026-05-05 03:10 | 44.28566 | -89.03987 | 5534 ft | 189 kts | 131° |
| 2026-05-05 03:10 | 44.27715 | -89.02589 | 5522 ft | 190 kts | 130° |
| 2026-05-05 03:11 | 44.26886 | -89.01146 | 5531 ft | 190 kts | 129° |
| 2026-05-05 03:11 | 44.26061 | -88.99715 | 5524 ft | 191 kts | 129° |
| 2026-05-05 03:11 | 44.25221 | -88.98277 | 5520 ft | 191 kts | 129° |
| 2026-05-05 03:11 | 44.24382 | -88.96847 | 5510 ft | 191 kts | 129° |
| 2026-05-05 03:12 | 44.23539 | -88.95409 | 5508 ft | 191 kts | 128° |
| 2026-05-05 03:12 | 44.22837 | -88.93864 | 5510 ft | 189 kts | 117° |
| 2026-05-05 03:12 | 44.22197 | -88.92264 | 5505 ft | 188 kts | 117° |
| 2026-05-05 03:12 | 44.21557 | -88.90659 | 5514 ft | 188 kts | 117° |
| 2026-05-05 03:13 | 44.20928 | -88.89075 | 5526 ft | 189 kts | 117° |
| 2026-05-05 03:13 | 44.20383 | -88.87402 | 5493 ft | 188 kts | 108° |
| 2026-05-05 03:13 | 44.19904 | -88.85719 | 5505 ft | 188 kts | 109° |
| 2026-05-05 03:13 | 44.19423 | -88.84010 | 5520 ft | 191 kts | 108° |
| 2026-05-05 03:14 | 44.18935 | -88.82287 | 5371 ft | 193 kts | 108° |
| 2026-05-05 03:14 | 44.18440 | -88.80559 | 5225 ft | 192 kts | 109° |
| 2026-05-05 03:14 | 44.17947 | -88.78837 | 5090 ft | 191 kts | 108° |
| 2026-05-05 03:14 | 44.17451 | -88.77125 | 4958 ft | 190 kts | 108° |
| 2026-05-05 03:15 | 44.16960 | -88.75431 | 4840 ft | 190 kts | 108° |
| 2026-05-05 03:15 | 44.16447 | -88.73736 | 4687 ft | 190 kts | 116° |
| 2026-05-05 03:15 | 44.15653 | -88.72282 | 4552 ft | 190 kts | 132° |
| 2026-05-05 03:15 | 44.14747 | -88.70931 | 4419 ft | 190 kts | 133° |
| 2026-05-05 03:16 | 44.13846 | -88.69600 | 4288 ft | 189 kts | 133° |
| 2026-05-05 03:16 | 44.12947 | -88.68282 | 4160 ft | 189 kts | 133° |
| 2026-05-05 03:16 | 44.12042 | -88.66951 | 4018 ft | 186 kts | 133° |
| 2026-05-05 03:16 | 44.11162 | -88.65657 | 3687 ft | 184 kts | 133° |
| 2026-05-05 03:17 | 44.10292 | -88.64398 | 3317 ft | 174 kts | 133° |
| 2026-05-05 03:17 | 44.09363 | -88.63458 | 2907 ft | 164 kts | 156° |
| 2026-05-05 03:17 | 44.08314 | -88.62991 | 2497 ft | 155 kts | 171° |
| 2026-05-05 03:17 | 44.07310 | -88.62641 | 2202 ft | 143 kts | 172° |
| 2026-05-05 03:18 | 44.06404 | -88.62310 | 2121 ft | 127 kts | 171° |
| 2026-05-05 03:18 | 44.05530 | -88.62001 | 2146 ft | 130 kts | 172° |
| 2026-05-05 03:18 | 44.04660 | -88.61678 | 2156 ft | 130 kts | 170° |
| 2026-05-05 03:18 | 44.03788 | -88.61373 | 2151 ft | 128 kts | 173° |
| 2026-05-05 03:19 | 44.02190 | -88.60757 | 2157 ft | 116 kts | 171° |
| 2026-05-05 03:19 | 44.01364 | -88.60488 | 2153 ft | 126 kts | 178° |
| 2026-05-05 03:19 | 44.00466 | -88.60287 | 2149 ft | 133 kts | 176° |
| 2026-05-05 03:20 | 43.99593 | -88.59921 | 2191 ft | 132 kts | 135° |
| 2026-05-05 03:20 | 43.99200 | -88.58805 | 2215 ft | 131 kts | 78° |
| 2026-05-05 03:20 | 43.99101 | -88.57483 | 2115 ft | 144 kts | 89° |
| 2026-05-05 03:20 | 43.99000 | -88.56155 | 2154 ft | 135 kts | 66° |
| 2026-05-05 03:21 | 43.99110 | -88.54837 | 2158 ft | 140 kts | 71° |
| 2026-05-05 03:21 | 43.99370 | -88.53552 | 2149 ft | 132 kts | 43° |
| 2026-05-05 03:21 | 43.99947 | -88.52664 | 2071 ft | 121 kts | 30° |
| 2026-05-05 03:21 | 44.00266 | -88.51598 | 2047 ft | 127 kts | 79° |
| 2026-05-05 03:22 | 43.99990 | -88.50461 | 1955 ft | 126 kts | 129° |
| 2026-05-05 03:22 | 43.99204 | -88.49964 | 1342 ft | 129 kts | 199° |
| 2026-05-05 03:22 | 43.98672 | -88.50583 | 1314 ft | 84 kts | 270° |
| 2026-05-05 03:22 | 43.98864 | -88.51363 | 1045 ft | 90 kts | 312° |
| 2026-05-05 03:23 | 43.99085 | -88.52034 | 1008 ft | 78 kts | 281° |
| 2026-05-05 03:23 | 43.99134 | -88.52805 | 1081 ft | 78 kts | 271° |
| 2026-05-05 03:23 | 43.99122 | -88.53600 | 1068 ft | 84 kts | 275° |
| 2026-05-05 03:23 | 43.99134 | -88.54382 | 909 ft | 80 kts | 271° |
| 2026-05-05 03:24 | 43.99142 | -88.55098 | 775 ft | 61 kts | 272° |
| 2026-05-05 03:24 | 43.99146 | -88.55299 | 775 ft | 0 kts | 271° |
| 2026-05-05 03:24 | 43.99146 | -88.55370 | 776 ft | 9 kts | 279° |
| 2026-05-05 03:24 | 43.99220 | -88.55424 | 776 ft | 9 kts | 350° |